sensor_id;sensor_type;location;lat;lon;timestamp;pressure;altitude;pressure_sealevel;temperature;humidity
21357;BME280;10836;53.068;18.234;2023-10-31T00:01:10;99569.94;;;8.32;100.00
21357;BME280;10836;53.068;18.234;2023-10-31T00:03:37;99567.47;;;8.31;100.00
21357;BME280;10836;53.068;18.234;2023-10-31T00:06:07;99567.81;;;8.24;100.00
21357;BME280;10836;53.068;18.234;2023-10-31T00:08:34;99567.22;;;8.32;100.00
21357;BME280;10836;53.068;18.234;2023-10-31T00:11:01;99548.91;;;8.43;100.00
21357;BME280;10836;53.068;18.234;2023-10-31T00:13:27;99546.72;;;8.45;100.00
21357;BME280;10836;53.068;18.234;2023-10-31T00:15:55;99533.63;;;8.47;100.00
21357;BME280;10836;53.068;18.234;2023-10-31T00:18:22;99530.28;;;8.55;100.00
21357;BME280;10836;53.068;18.234;2023-10-31T00:20:49;99530.88;;;8.52;100.00
21357;BME280;10836;53.068;18.234;2023-10-31T00:23:16;99531.91;;;8.56;100.00
21357;BME280;10836;53.068;18.234;2023-10-31T00:25:43;99519.41;;;8.55;100.00
21357;BME280;10836;53.068;18.234;2023-10-31T00:28:09;99506.47;;;8.42;100.00
21357;BME280;10836;53.068;18.234;2023-10-31T00:30:37;99502.72;;;8.38;100.00
21357;BME280;10836;53.068;18.234;2023-10-31T00:33:04;99499.69;;;8.40;100.00
21357;BME280;10836;53.068;18.234;2023-10-31T00:35:31;99492.88;;;8.42;100.00
21357;BME280;10836;53.068;18.234;2023-10-31T00:37:58;99497.97;;;8.49;100.00
21357;BME280;10836;53.068;18.234;2023-10-31T00:40:25;99489.53;;;8.50;100.00
21357;BME280;10836;53.068;18.234;2023-10-31T00:42:52;99483.50;;;8.53;100.00
21357;BME280;10836;53.068;18.234;2023-10-31T00:45:20;99477.50;;;8.56;100.00
21357;BME280;10836;53.068;18.234;2023-10-31T00:47:47;99473.66;;;8.57;100.00
21357;BME280;10836;53.068;18.234;2023-10-31T00:50:14;99460.28;;;8.61;100.00
21357;BME280;10836;53.068;18.234;2023-10-31T00:52:41;99463.81;;;8.61;100.00
21357;BME280;10836;53.068;18.234;2023-10-31T00:55:09;99455.72;;;8.56;100.00
21357;BME280;10836;53.068;18.234;2023-10-31T00:57:37;99444.31;;;8.54;100.00
21357;BME280;10836;53.068;18.234;2023-10-31T01:00:04;99436.75;;;8.51;100.00
21357;BME280;10836;53.068;18.234;2023-10-31T01:02:31;99430.25;;;8.47;100.00
21357;BME280;10836;53.068;18.234;2023-10-31T01:04:59;99417.16;;;8.49;100.00
21357;BME280;10836;53.068;18.234;2023-10-31T01:07:26;99430.47;;;8.51;100.00
21357;BME280;10836;53.068;18.234;2023-10-31T01:09:53;99417.75;;;8.46;100.00
21357;BME280;10836;53.068;18.234;2023-10-31T01:12:19;99416.72;;;8.42;100.00
21357;BME280;10836;53.068;18.234;2023-10-31T01:14:47;99411.28;;;8.42;100.00
21357;BME280;10836;53.068;18.234;2023-10-31T01:17:13;99403.63;;;8.44;100.00
21357;BME280;10836;53.068;18.234;2023-10-31T01:19:40;99392.22;;;8.42;100.00
21357;BME280;10836;53.068;18.234;2023-10-31T01:22:09;99385.69;;;8.43;100.00
21357;BME280;10836;53.068;18.234;2023-10-31T01:24:36;99372.03;;;8.48;100.00
21357;BME280;10836;53.068;18.234;2023-10-31T01:27:03;99361.44;;;8.47;100.00
21357;BME280;10836;53.068;18.234;2023-10-31T01:29:30;99352.47;;;8.46;100.00
21357;BME280;10836;53.068;18.234;2023-10-31T01:31:57;99348.06;;;8.50;100.00
21357;BME280;10836;53.068;18.234;2023-10-31T01:34:29;99332.19;;;8.57;100.00
21357;BME280;10836;53.068;18.234;2023-10-31T01:36:56;99332.78;;;8.54;100.00
21357;BME280;10836;53.068;18.234;2023-10-31T01:39:23;99325.66;;;8.58;100.00
21357;BME280;10836;53.068;18.234;2023-10-31T01:41:49;99315.50;;;8.64;100.00
21357;BME280;10836;53.068;18.234;2023-10-31T01:44:17;99300.78;;;8.65;100.00
21357;BME280;10836;53.068;18.234;2023-10-31T01:46:44;99293.09;;;8.67;100.00
21357;BME280;10836;53.068;18.234;2023-10-31T01:49:12;99274.19;;;8.76;100.00
21357;BME280;10836;53.068;18.234;2023-10-31T01:51:40;99270.38;;;8.77;100.00
21357;BME280;10836;53.068;18.234;2023-10-31T01:54:09;99267.88;;;8.80;100.00
21357;BME280;10836;53.068;18.234;2023-10-31T01:56:37;99259.41;;;8.82;100.00
21357;BME280;10836;53.068;18.234;2023-10-31T01:59:05;99247.13;;;8.84;100.00
21357;BME280;10836;53.068;18.234;2023-10-31T02:01:33;99250.06;;;8.88;100.00
21357;BME280;10836;53.068;18.234;2023-10-31T02:04:03;99247.25;;;8.93;100.00
21357;BME280;10836;53.068;18.234;2023-10-31T02:06:30;99242.16;;;9.05;100.00
21357;BME280;10836;53.068;18.234;2023-10-31T02:08:57;99232.63;;;9.35;100.00
21357;BME280;10836;53.068;18.234;2023-10-31T02:11:24;99237.69;;;9.83;100.00
21357;BME280;10836;53.068;18.234;2023-10-31T02:13:51;99230.16;;;10.16;100.00
21357;BME280;10836;53.068;18.234;2023-10-31T02:16:18;99227.50;;;10.38;100.00
21357;BME280;10836;53.068;18.234;2023-10-31T02:18:45;99228.31;;;10.61;100.00
21357;BME280;10836;53.068;18.234;2023-10-31T02:21:12;99221.72;;;11.07;100.00
21357;BME280;10836;53.068;18.234;2023-10-31T02:23:39;99218.41;;;11.18;100.00
21357;BME280;10836;53.068;18.234;2023-10-31T02:26:07;99200.47;;;11.34;100.00
21357;BME280;10836;53.068;18.234;2023-10-31T02:28:34;99186.22;;;11.46;100.00
21357;BME280;10836;53.068;18.234;2023-10-31T02:31:01;99185.41;;;11.46;100.00
21357;BME280;10836;53.068;18.234;2023-10-31T02:33:28;99165.72;;;11.66;100.00
21357;BME280;10836;53.068;18.234;2023-10-31T02:35:54;99159.47;;;11.83;100.00
21357;BME280;10836;53.068;18.234;2023-10-31T02:38:22;99155.16;;;11.90;100.00
21357;BME280;10836;53.068;18.234;2023-10-31T02:40:50;99142.59;;;12.15;100.00
21357;BME280;10836;53.068;18.234;2023-10-31T02:43:17;99132.16;;;12.26;100.00
21357;BME280;10836;53.068;18.234;2023-10-31T02:45:44;99131.19;;;12.39;100.00
21357;BME280;10836;53.068;18.234;2023-10-31T02:48:11;99129.56;;;12.38;100.00
21357;BME280;10836;53.068;18.234;2023-10-31T02:50:39;99121.84;;;12.40;100.00
21357;BME280;10836;53.068;18.234;2023-10-31T02:53:07;99118.63;;;12.38;100.00
21357;BME280;10836;53.068;18.234;2023-10-31T02:55:34;99115.41;;;12.36;100.00
21357;BME280;10836;53.068;18.234;2023-10-31T02:58:01;99090.09;;;12.48;100.00
21357;BME280;10836;53.068;18.234;2023-10-31T03:00:28;99084.78;;;12.51;100.00
21357;BME280;10836;53.068;18.234;2023-10-31T03:02:55;99077.38;;;12.52;100.00
21357;BME280;10836;53.068;18.234;2023-10-31T03:05:23;99088.00;;;12.53;100.00
21357;BME280;10836;53.068;18.234;2023-10-31T03:07:50;99083.59;;;12.70;100.00
21357;BME280;10836;53.068;18.234;2023-10-31T03:10:17;99075.03;;;12.80;100.00
21357;BME280;10836;53.068;18.234;2023-10-31T03:12:44;99077.78;;;12.80;100.00
21357;BME280;10836;53.068;18.234;2023-10-31T03:15:11;99075.50;;;12.82;100.00
21357;BME280;10836;53.068;18.234;2023-10-31T03:17:38;99073.13;;;12.72;100.00
21357;BME280;10836;53.068;18.234;2023-10-31T03:20:06;99070.06;;;12.73;100.00
21357;BME280;10836;53.068;18.234;2023-10-31T03:22:33;99061.03;;;12.73;100.00
21357;BME280;10836;53.068;18.234;2023-10-31T03:25:00;99052.81;;;12.73;100.00
21357;BME280;10836;53.068;18.234;2023-10-31T03:27:28;99046.03;;;12.79;100.00
21357;BME280;10836;53.068;18.234;2023-10-31T03:29:54;99034.56;;;12.85;100.00
21357;BME280;10836;53.068;18.234;2023-10-31T03:32:22;99030.38;;;12.88;100.00
21357;BME280;10836;53.068;18.234;2023-10-31T03:34:48;99024.28;;;12.82;100.00
21357;BME280;10836;53.068;18.234;2023-10-31T03:37:15;99023.66;;;12.77;100.00
21357;BME280;10836;53.068;18.234;2023-10-31T03:39:42;99023.97;;;12.75;100.00
21357;BME280;10836;53.068;18.234;2023-10-31T03:42:09;99020.41;;;12.83;100.00
21357;BME280;10836;53.068;18.234;2023-10-31T03:44:36;99009.06;;;12.93;100.00
21357;BME280;10836;53.068;18.234;2023-10-31T03:47:03;99023.09;;;12.92;100.00
21357;BME280;10836;53.068;18.234;2023-10-31T03:49:30;99009.34;;;13.00;100.00
21357;BME280;10836;53.068;18.234;2023-10-31T03:51:57;99001.47;;;12.99;100.00
21357;BME280;10836;53.068;18.234;2023-10-31T03:54:24;98996.97;;;12.94;100.00
21357;BME280;10836;53.068;18.234;2023-10-31T03:56:51;98982.47;;;12.94;100.00
21357;BME280;10836;53.068;18.234;2023-10-31T03:59:18;98977.00;;;12.94;100.00
21357;BME280;10836;53.068;18.234;2023-10-31T04:01:45;98968.59;;;12.99;100.00
21357;BME280;10836;53.068;18.234;2023-10-31T04:04:12;98970.72;;;12.93;100.00
21357;BME280;10836;53.068;18.234;2023-10-31T04:06:39;98960.28;;;12.87;100.00
21357;BME280;10836;53.068;18.234;2023-10-31T04:09:07;98952.91;;;12.79;100.00
21357;BME280;10836;53.068;18.234;2023-10-31T04:11:34;98947.28;;;12.75;100.00
21357;BME280;10836;53.068;18.234;2023-10-31T04:14:01;98950.63;;;12.81;100.00
21357;BME280;10836;53.068;18.234;2023-10-31T04:16:28;98952.31;;;12.64;100.00
21357;BME280;10836;53.068;18.234;2023-10-31T04:18:55;98951.19;;;12.65;100.00
21357;BME280;10836;53.068;18.234;2023-10-31T04:21:22;98940.06;;;12.71;100.00
21357;BME280;10836;53.068;18.234;2023-10-31T04:23:49;98934.16;;;12.60;100.00
21357;BME280;10836;53.068;18.234;2023-10-31T04:26:16;98932.28;;;12.52;100.00
21357;BME280;10836;53.068;18.234;2023-10-31T04:28:44;98937.91;;;12.55;100.00
21357;BME280;10836;53.068;18.234;2023-10-31T04:31:11;98940.81;;;12.50;100.00
21357;BME280;10836;53.068;18.234;2023-10-31T04:33:38;98940.28;;;12.57;100.00
21357;BME280;10836;53.068;18.234;2023-10-31T04:36:05;98931.66;;;12.46;100.00
21357;BME280;10836;53.068;18.234;2023-10-31T04:38:32;98926.34;;;12.41;100.00
21357;BME280;10836;53.068;18.234;2023-10-31T04:40:59;98922.13;;;12.52;100.00
21357;BME280;10836;53.068;18.234;2023-10-31T04:43:25;98919.56;;;12.47;100.00
21357;BME280;10836;53.068;18.234;2023-10-31T04:45:53;98910.38;;;12.52;100.00
21357;BME280;10836;53.068;18.234;2023-10-31T04:48:20;98907.56;;;12.60;100.00
21357;BME280;10836;53.068;18.234;2023-10-31T04:50:47;98911.31;;;12.56;100.00
21357;BME280;10836;53.068;18.234;2023-10-31T04:53:14;98910.03;;;12.53;100.00
21357;BME280;10836;53.068;18.234;2023-10-31T04:55:41;98903.44;;;12.54;100.00
21357;BME280;10836;53.068;18.234;2023-10-31T04:58:07;98906.50;;;12.53;100.00
21357;BME280;10836;53.068;18.234;2023-10-31T05:00:34;98894.94;;;12.47;100.00
21357;BME280;10836;53.068;18.234;2023-10-31T05:03:02;98897.50;;;12.52;100.00
21357;BME280;10836;53.068;18.234;2023-10-31T05:05:30;98892.50;;;12.54;100.00
21357;BME280;10836;53.068;18.234;2023-10-31T05:07:56;98883.81;;;12.52;100.00
21357;BME280;10836;53.068;18.234;2023-10-31T05:10:25;98887.53;;;12.48;100.00
21357;BME280;10836;53.068;18.234;2023-10-31T05:12:51;98886.06;;;12.50;100.00
21357;BME280;10836;53.068;18.234;2023-10-31T05:15:19;98878.00;;;12.54;100.00
21357;BME280;10836;53.068;18.234;2023-10-31T05:17:46;98878.50;;;12.47;100.00
21357;BME280;10836;53.068;18.234;2023-10-31T05:20:13;98875.78;;;12.47;100.00
21357;BME280;10836;53.068;18.234;2023-10-31T05:22:41;98868.69;;;12.46;100.00
21357;BME280;10836;53.068;18.234;2023-10-31T05:25:08;98868.06;;;12.41;100.00
21357;BME280;10836;53.068;18.234;2023-10-31T05:27:35;98859.72;;;12.37;100.00
21357;BME280;10836;53.068;18.234;2023-10-31T05:30:03;98854.25;;;12.37;100.00
21357;BME280;10836;53.068;18.234;2023-10-31T05:32:30;98854.25;;;12.37;100.00
21357;BME280;10836;53.068;18.234;2023-10-31T05:34:57;98842.63;;;12.40;100.00
21357;BME280;10836;53.068;18.234;2023-10-31T05:37:26;98838.38;;;12.51;100.00
21357;BME280;10836;53.068;18.234;2023-10-31T05:39:53;98839.72;;;12.45;100.00
21357;BME280;10836;53.068;18.234;2023-10-31T05:42:20;98836.13;;;12.53;100.00
21357;BME280;10836;53.068;18.234;2023-10-31T05:44:47;98832.38;;;12.58;100.00
21357;BME280;10836;53.068;18.234;2023-10-31T05:47:15;98835.19;;;12.49;100.00
21357;BME280;10836;53.068;18.234;2023-10-31T05:49:43;98830.91;;;12.60;100.00
21357;BME280;10836;53.068;18.234;2023-10-31T05:52:10;98831.69;;;12.61;100.00
21357;BME280;10836;53.068;18.234;2023-10-31T05:54:37;98828.97;;;12.61;100.00
21357;BME280;10836;53.068;18.234;2023-10-31T05:57:04;98829.75;;;12.61;100.00
21357;BME280;10836;53.068;18.234;2023-10-31T05:59:31;98830.25;;;12.63;100.00
21357;BME280;10836;53.068;18.234;2023-10-31T06:01:59;98836.50;;;12.64;100.00
21357;BME280;10836;53.068;18.234;2023-10-31T06:04:26;98823.72;;;12.77;100.00
21357;BME280;10836;53.068;18.234;2023-10-31T06:06:53;98829.19;;;12.77;100.00
21357;BME280;10836;53.068;18.234;2023-10-31T06:09:20;98825.97;;;12.75;100.00
21357;BME280;10836;53.068;18.234;2023-10-31T06:11:47;98828.25;;;12.73;100.00
21357;BME280;10836;53.068;18.234;2023-10-31T06:14:14;98835.34;;;12.74;100.00
21357;BME280;10836;53.068;18.234;2023-10-31T06:16:42;98839.34;;;12.76;100.00
21357;BME280;10836;53.068;18.234;2023-10-31T06:19:09;98823.03;;;12.80;100.00
21357;BME280;10836;53.068;18.234;2023-10-31T06:21:36;98829.00;;;12.82;100.00
21357;BME280;10836;53.068;18.234;2023-10-31T06:24:04;98822.66;;;12.90;100.00
21357;BME280;10836;53.068;18.234;2023-10-31T06:26:31;98827.31;;;12.89;100.00
21357;BME280;10836;53.068;18.234;2023-10-31T06:28:58;98832.66;;;12.86;100.00
21357;BME280;10836;53.068;18.234;2023-10-31T06:31:44;98831.59;;;12.99;100.00
21357;BME280;10836;53.068;18.234;2023-10-31T06:34:12;98834.28;;;12.87;100.00
21357;BME280;10836;53.068;18.234;2023-10-31T06:36:39;98827.69;;;13.00;100.00
21357;BME280;10836;53.068;18.234;2023-10-31T06:39:06;98821.97;;;12.93;100.00
21357;BME280;10836;53.068;18.234;2023-10-31T06:41:33;98828.94;;;12.90;100.00
21357;BME280;10836;53.068;18.234;2023-10-31T06:44:00;98829.06;;;12.94;100.00
21357;BME280;10836;53.068;18.234;2023-10-31T06:46:27;98822.66;;;12.90;100.00
21357;BME280;10836;53.068;18.234;2023-10-31T06:48:54;98833.06;;;12.96;100.00
21357;BME280;10836;53.068;18.234;2023-10-31T06:51:20;98826.78;;;12.96;100.00
21357;BME280;10836;53.068;18.234;2023-10-31T06:53:47;98836.38;;;13.02;100.00
21357;BME280;10836;53.068;18.234;2023-10-31T06:56:14;98823.75;;;13.10;100.00
21357;BME280;10836;53.068;18.234;2023-10-31T06:58:41;98820.88;;;13.06;100.00
21357;BME280;10836;53.068;18.234;2023-10-31T07:01:08;98813.13;;;13.08;100.00
21357;BME280;10836;53.068;18.234;2023-10-31T07:03:35;98803.78;;;13.09;100.00
21357;BME280;10836;53.068;18.234;2023-10-31T07:06:03;98806.13;;;13.19;100.00
21357;BME280;10836;53.068;18.234;2023-10-31T07:08:30;98803.09;;;13.12;100.00
21357;BME280;10836;53.068;18.234;2023-10-31T07:10:57;98808.59;;;13.12;100.00
21357;BME280;10836;53.068;18.234;2023-10-31T07:13:27;98802.16;;;13.08;100.00
21357;BME280;10836;53.068;18.234;2023-10-31T07:15:54;98802.44;;;13.15;100.00
21357;BME280;10836;53.068;18.234;2023-10-31T07:18:21;98799.38;;;13.17;100.00
21357;BME280;10836;53.068;18.234;2023-10-31T07:20:48;98798.59;;;13.16;100.00
21357;BME280;10836;53.068;18.234;2023-10-31T07:23:15;98792.78;;;13.18;100.00
21357;BME280;10836;53.068;18.234;2023-10-31T07:25:42;98794.28;;;13.27;100.00
21357;BME280;10836;53.068;18.234;2023-10-31T07:28:10;98791.75;;;13.22;100.00
21357;BME280;10836;53.068;18.234;2023-10-31T07:31:03;98776.25;;;13.26;100.00
21357;BME280;10836;53.068;18.234;2023-10-31T07:33:31;98769.38;;;13.20;100.00
21357;BME280;10836;53.068;18.234;2023-10-31T07:35:58;98767.25;;;13.38;100.00
21357;BME280;10836;53.068;18.234;2023-10-31T07:38:25;98764.72;;;13.33;100.00
21357;BME280;10836;53.068;18.234;2023-10-31T07:40:52;98767.81;;;13.31;100.00
21357;BME280;10836;53.068;18.234;2023-10-31T07:43:20;98773.28;;;13.31;100.00
21357;BME280;10836;53.068;18.234;2023-10-31T07:45:46;98771.03;;;13.34;100.00
21357;BME280;10836;53.068;18.234;2023-10-31T07:48:14;98764.22;;;13.19;100.00
21357;BME280;10836;53.068;18.234;2023-10-31T07:51:06;98767.56;;;13.24;100.00
21357;BME280;10836;53.068;18.234;2023-10-31T07:53:33;98769.88;;;13.14;100.00
21357;BME280;10836;53.068;18.234;2023-10-31T07:56:00;98765.84;;;13.20;100.00
21357;BME280;10836;53.068;18.234;2023-10-31T07:58:27;98767.31;;;13.17;100.00
21357;BME280;10836;53.068;18.234;2023-10-31T08:00:54;98762.34;;;13.11;100.00
21357;BME280;10836;53.068;18.234;2023-10-31T08:03:21;98771.19;;;13.16;100.00
21357;BME280;10836;53.068;18.234;2023-10-31T08:05:48;98780.50;;;13.15;100.00
21357;BME280;10836;53.068;18.234;2023-10-31T08:08:15;98767.16;;;13.14;100.00
21357;BME280;10836;53.068;18.234;2023-10-31T08:10:42;98774.97;;;13.03;100.00
21357;BME280;10836;53.068;18.234;2023-10-31T08:13:09;98775.41;;;12.93;100.00
21357;BME280;10836;53.068;18.234;2023-10-31T08:15:35;98769.59;;;12.74;100.00
21357;BME280;10836;53.068;18.234;2023-10-31T08:18:03;98772.28;;;12.61;100.00
21357;BME280;10836;53.068;18.234;2023-10-31T08:20:30;98768.16;;;12.55;100.00
21357;BME280;10836;53.068;18.234;2023-10-31T08:23:00;98782.03;;;12.50;100.00
21357;BME280;10836;53.068;18.234;2023-10-31T08:25:28;98780.56;;;12.53;100.00
21357;BME280;10836;53.068;18.234;2023-10-31T08:27:55;98783.34;;;12.44;100.00
21357;BME280;10836;53.068;18.234;2023-10-31T08:30:23;98789.16;;;12.43;100.00
21357;BME280;10836;53.068;18.234;2023-10-31T08:32:50;98798.94;;;12.23;100.00
21357;BME280;10836;53.068;18.234;2023-10-31T08:35:17;98795.72;;;12.21;100.00
21357;BME280;10836;53.068;18.234;2023-10-31T08:37:44;98799.22;;;12.30;100.00
21357;BME280;10836;53.068;18.234;2023-10-31T08:40:12;98798.28;;;12.26;100.00
21357;BME280;10836;53.068;18.234;2023-10-31T08:42:39;98807.63;;;12.25;100.00
21357;BME280;10836;53.068;18.234;2023-10-31T08:45:06;98809.41;;;12.21;100.00
21357;BME280;10836;53.068;18.234;2023-10-31T08:47:33;98812.13;;;12.21;100.00
21357;BME280;10836;53.068;18.234;2023-10-31T08:50:00;98821.47;;;12.20;100.00
21357;BME280;10836;53.068;18.234;2023-10-31T08:52:27;98825.34;;;12.19;100.00
21357;BME280;10836;53.068;18.234;2023-10-31T08:54:54;98830.16;;;12.22;100.00
21357;BME280;10836;53.068;18.234;2023-10-31T08:57:22;98836.28;;;12.19;100.00
21357;BME280;10836;53.068;18.234;2023-10-31T08:59:49;98840.63;;;12.20;100.00
21357;BME280;10836;53.068;18.234;2023-10-31T09:02:16;98844.31;;;12.24;100.00
21357;BME280;10836;53.068;18.234;2023-10-31T09:04:43;98850.28;;;12.26;100.00
21357;BME280;10836;53.068;18.234;2023-10-31T09:07:10;98849.13;;;12.27;100.00
21357;BME280;10836;53.068;18.234;2023-10-31T09:09:37;98862.78;;;12.36;100.00
21357;BME280;10836;53.068;18.234;2023-10-31T09:12:04;98857.47;;;12.39;100.00
21357;BME280;10836;53.068;18.234;2023-10-31T09:14:31;98850.00;;;12.48;100.00
21357;BME280;10836;53.068;18.234;2023-10-31T09:16:58;98846.75;;;12.55;100.00
21357;BME280;10836;53.068;18.234;2023-10-31T09:19:25;98850.53;;;12.62;100.00
21357;BME280;10836;53.068;18.234;2023-10-31T09:21:52;98848.28;;;12.64;100.00
21357;BME280;10836;53.068;18.234;2023-10-31T09:24:19;98855.50;;;12.69;100.00
21357;BME280;10836;53.068;18.234;2023-10-31T09:26:46;98848.81;;;12.79;100.00
21357;BME280;10836;53.068;18.234;2023-10-31T09:29:12;98847.97;;;12.87;100.00
21357;BME280;10836;53.068;18.234;2023-10-31T09:31:54;98856.66;;;12.89;100.00
21357;BME280;10836;53.068;18.234;2023-10-31T09:34:21;98856.94;;;12.96;100.00
21357;BME280;10836;53.068;18.234;2023-10-31T09:36:48;98852.59;;;12.95;100.00
21357;BME280;10836;53.068;18.234;2023-10-31T09:39:15;98840.97;;;12.98;100.00
21357;BME280;10836;53.068;18.234;2023-10-31T09:41:42;98860.84;;;13.07;100.00
21357;BME280;10836;53.068;18.234;2023-10-31T09:44:09;98863.25;;;13.09;100.00
21357;BME280;10836;53.068;18.234;2023-10-31T09:46:36;98864.72;;;13.06;100.00
21357;BME280;10836;53.068;18.234;2023-10-31T09:49:04;98875.03;;;13.09;100.00
21357;BME280;10836;53.068;18.234;2023-10-31T09:51:32;98874.22;;;13.09;100.00
21357;BME280;10836;53.068;18.234;2023-10-31T09:53:59;98886.66;;;13.06;100.00
21357;BME280;10836;53.068;18.234;2023-10-31T09:56:29;98886.66;;;13.06;100.00
21357;BME280;10836;53.068;18.234;2023-10-31T09:59:01;98885.97;;;13.09;100.00
21357;BME280;10836;53.068;18.234;2023-10-31T10:01:29;98893.06;;;13.10;100.00
21357;BME280;10836;53.068;18.234;2023-10-31T10:03:56;98892.13;;;13.06;100.00
21357;BME280;10836;53.068;18.234;2023-10-31T10:06:24;98899.88;;;13.04;100.00
21357;BME280;10836;53.068;18.234;2023-10-31T10:08:51;98904.56;;;13.04;100.00
21357;BME280;10836;53.068;18.234;2023-10-31T10:11:18;98906.03;;;13.01;100.00
21357;BME280;10836;53.068;18.234;2023-10-31T10:13:45;98913.91;;;13.03;100.00
21357;BME280;10836;53.068;18.234;2023-10-31T10:16:12;98910.59;;;12.97;100.00
21357;BME280;10836;53.068;18.234;2023-10-31T10:18:39;98898.50;;;12.98;100.00
21357;BME280;10836;53.068;18.234;2023-10-31T10:21:08;98888.91;;;13.04;100.00
21357;BME280;10836;53.068;18.234;2023-10-31T10:23:35;98897.88;;;13.13;100.00
21357;BME280;10836;53.068;18.234;2023-10-31T10:26:03;98894.00;;;13.14;100.00
21357;BME280;10836;53.068;18.234;2023-10-31T10:28:30;98897.38;;;13.20;100.00
21357;BME280;10836;53.068;18.234;2023-10-31T10:30:57;98897.38;;;13.20;100.00
21357;BME280;10836;53.068;18.234;2023-10-31T10:33:24;98897.41;;;13.11;100.00
21357;BME280;10836;53.068;18.234;2023-10-31T10:35:51;98922.75;;;13.08;100.00
21357;BME280;10836;53.068;18.234;2023-10-31T10:38:19;98919.38;;;13.03;100.00
21357;BME280;10836;53.068;18.234;2023-10-31T10:40:47;98923.00;;;12.94;100.00
21357;BME280;10836;53.068;18.234;2023-10-31T10:43:23;98935.72;;;12.99;100.00
21357;BME280;10836;53.068;18.234;2023-10-31T10:45:54;98934.97;;;12.90;100.00
21357;BME280;10836;53.068;18.234;2023-10-31T10:48:27;98948.00;;;12.93;100.00
21357;BME280;10836;53.068;18.234;2023-10-31T10:54:09;98936.75;;;12.86;100.00
21357;BME280;10836;53.068;18.234;2023-10-31T10:56:39;98944.50;;;12.84;100.00
21357;BME280;10836;53.068;18.234;2023-10-31T11:00:02;98940.50;;;12.81;100.00
21357;BME280;10836;53.068;18.234;2023-10-31T11:02:22;98937.69;;;12.90;100.00
21357;BME280;10836;53.068;18.234;2023-10-31T11:04:50;98933.53;;;12.84;100.00
21357;BME280;10836;53.068;18.234;2023-10-31T11:07:18;98925.53;;;12.79;100.00
21357;BME280;10836;53.068;18.234;2023-10-31T11:09:47;98944.78;;;12.91;100.00
21357;BME280;10836;53.068;18.234;2023-10-31T11:12:14;98933.53;;;12.84;100.00
21357;BME280;10836;53.068;18.234;2023-10-31T11:14:42;98939.03;;;12.84;100.00
21357;BME280;10836;53.068;18.234;2023-10-31T11:17:17;98933.06;;;12.82;100.00
21357;BME280;10836;53.068;18.234;2023-10-31T11:19:50;98933.41;;;12.80;100.00
21357;BME280;10836;53.068;18.234;2023-10-31T11:22:17;98945.69;;;12.74;100.00
21357;BME280;10836;53.068;18.234;2023-10-31T11:24:49;98959.34;;;12.83;100.00
21357;BME280;10836;53.068;18.234;2023-10-31T11:27:17;98969.47;;;12.82;100.00
21357;BME280;10836;53.068;18.234;2023-10-31T11:29:45;98982.84;;;12.84;100.00
21357;BME280;10836;53.068;18.234;2023-10-31T11:32:12;98994.47;;;12.81;100.00
21357;BME280;10836;53.068;18.234;2023-10-31T11:34:39;98993.66;;;12.80;100.00
21357;BME280;10836;53.068;18.234;2023-10-31T11:37:25;99005.91;;;12.83;100.00
21357;BME280;10836;53.068;18.234;2023-10-31T11:40:14;99012.81;;;12.89;100.00
21357;BME280;10836;53.068;18.234;2023-10-31T11:42:42;99018.59;;;12.87;100.00
21357;BME280;10836;53.068;18.234;2023-10-31T11:45:09;99022.97;;;12.88;100.00
21357;BME280;10836;53.068;18.234;2023-10-31T11:47:49;99024.28;;;12.82;100.00
21357;BME280;10836;53.068;18.234;2023-10-31T11:50:17;99039.25;;;12.85;100.00
21357;BME280;10836;53.068;18.234;2023-10-31T11:52:44;99036.97;;;12.87;100.00
21357;BME280;10836;53.068;18.234;2023-10-31T11:55:12;99047.94;;;12.87;100.00
21357;BME280;10836;53.068;18.234;2023-10-31T11:57:39;99045.03;;;12.92;100.00
21357;BME280;10836;53.068;18.234;2023-10-31T12:00:06;99044.72;;;12.85;100.00
21357;BME280;10836;53.068;18.234;2023-10-31T12:02:40;99051.81;;;12.86;100.00
21357;BME280;10836;53.068;18.234;2023-10-31T12:05:11;99059.03;;;12.90;100.00
21357;BME280;10836;53.068;18.234;2023-10-31T12:07:45;99056.81;;;12.84;100.00
21357;BME280;10836;53.068;18.234;2023-10-31T12:10:21;99058.91;;;12.87;100.00
21357;BME280;10836;53.068;18.234;2023-10-31T12:12:50;99059.41;;;12.80;100.00
21357;BME280;10836;53.068;18.234;2023-10-31T12:15:17;99063.00;;;12.63;100.00
21357;BME280;10836;53.068;18.234;2023-10-31T12:17:44;99062.00;;;12.68;100.00
21357;BME280;10836;53.068;18.234;2023-10-31T12:20:12;99054.78;;;12.63;100.00
21357;BME280;10836;53.068;18.234;2023-10-31T12:22:39;99053.97;;;12.63;100.00
21357;BME280;10836;53.068;18.234;2023-10-31T12:25:07;99055.91;;;12.62;100.00
21357;BME280;10836;53.068;18.234;2023-10-31T12:27:42;99049.00;;;12.56;100.00
21357;BME280;10836;53.068;18.234;2023-10-31T12:30:12;99050.31;;;12.50;100.00
21357;BME280;10836;53.068;18.234;2023-10-31T12:32:40;99053.69;;;12.56;100.00
21357;BME280;10836;53.068;18.234;2023-10-31T12:35:11;99063.47;;;12.65;100.00
21357;BME280;10836;53.068;18.234;2023-10-31T12:37:47;99058.00;;;12.65;100.00
21357;BME280;10836;53.068;18.234;2023-10-31T12:40:18;99066.03;;;12.71;100.00
21357;BME280;10836;53.068;18.234;2023-10-31T12:42:47;99057.66;;;12.76;100.00
21357;BME280;10836;53.068;18.234;2023-10-31T12:45:15;99056.50;;;12.77;100.00
21357;BME280;10836;53.068;18.234;2023-10-31T12:47:44;99057.00;;;12.79;100.00
21357;BME280;10836;53.068;18.234;2023-10-31T12:50:15;99060.25;;;12.63;100.00